createdAt,value
2018-01-18T00:00:13.506Z,81.49
2018-01-18T00:01:19.215Z,81.62
2018-01-18T00:02:24.936Z,81.52
2018-01-18T00:03:31.463Z,81.43
2018-01-18T00:04:37.191Z,81.31
2018-01-18T00:05:42.931Z,81.43
2018-01-18T00:06:48.640Z,81.38
2018-01-18T00:07:54.370Z,81.37
2018-01-18T00:09:00.136Z,81.25
2018-01-18T00:10:05.851Z,81.06
2018-01-18T00:11:11.574Z,80.96
2018-01-18T00:12:18.064Z,80.92
2018-01-18T00:13:23.775Z,80.89
2018-01-18T00:14:30.298Z,80.79
2018-01-18T00:15:36.040Z,80.83
2018-01-18T00:16:41.765Z,80.83
2018-01-18T00:17:47.490Z,80.75
2018-01-18T00:18:53.252Z,80.72
2018-01-18T00:19:59.016Z,80.80
2018-01-18T00:21:04.751Z,80.62
2018-01-18T00:22:11.998Z,80.48
2018-01-18T00:23:17.727Z,80.50
2018-01-18T00:24:23.467Z,80.59
2018-01-18T00:25:29.206Z,80.72
2018-01-18T00:26:34.935Z,80.71
2018-01-18T00:27:40.670Z,80.73
2018-01-18T00:28:47.167Z,80.68
2018-01-18T00:29:52.903Z,80.70
2018-01-18T00:30:58.648Z,80.64
2018-01-18T00:32:04.370Z,80.66
2018-01-18T00:33:10.107Z,80.67
2018-01-18T00:34:15.824Z,80.69
2018-01-18T00:35:22.362Z,80.76
2018-01-18T00:36:28.120Z,80.68
2018-01-18T00:37:34.600Z,80.65
2018-01-18T00:38:40.335Z,80.63
2018-01-18T00:39:46.816Z,80.63
2018-01-18T00:40:52.630Z,80.60
2018-01-18T00:41:58.586Z,80.56
2018-01-18T00:43:04.300Z,80.43
2018-01-18T00:44:10.010Z,80.35
2018-01-18T00:45:15.737Z,80.24
2018-01-18T00:46:21.451Z,80.05
2018-01-18T00:47:27.187Z,79.97
2018-01-18T00:48:32.923Z,79.85
2018-01-18T00:49:39.404Z,79.71
2018-01-18T00:50:45.117Z,79.62
2018-01-18T00:51:51.595Z,79.55
2018-01-18T00:52:57.376Z,79.53
2018-01-18T00:54:03.091Z,79.35
2018-01-18T00:55:08.824Z,79.18
2018-01-18T00:56:14.554Z,79.00
2018-01-18T00:57:20.312Z,78.86
2018-01-18T00:58:26.084Z,78.59
2018-01-18T00:59:31.803Z,78.36
2018-01-18T01:00:37.548Z,78.16
2018-01-18T01:01:43.255Z,78.00
2018-01-18T01:02:48.986Z,77.82
2018-01-18T01:03:55.488Z,77.63
2018-01-18T01:05:01.205Z,77.40
2018-01-18T01:06:06.919Z,77.30
2018-01-18T01:07:13.401Z,77.07
2018-01-18T01:08:19.111Z,76.93
2018-01-18T01:09:24.899Z,76.80
2018-01-18T01:10:30.613Z,76.73
2018-01-18T01:11:37.124Z,76.60
2018-01-18T01:12:42.847Z,76.43
2018-01-18T01:13:48.591Z,76.36
2018-01-18T01:14:54.348Z,76.30
2018-01-18T01:16:00.075Z,76.25
2018-01-18T01:17:05.807Z,76.15
2018-01-18T01:18:11.520Z,76.17
2018-01-18T01:19:18.011Z,76.13
2018-01-18T01:20:23.748Z,76.17
2018-01-18T01:21:29.474Z,76.08
2018-01-18T01:22:35.198Z,76.07
2018-01-18T01:23:41.673Z,75.99
2018-01-18T01:24:47.711Z,75.86
2018-01-18T01:25:53.722Z,75.80
2018-01-18T01:27:00.966Z,75.80
2018-01-18T01:28:06.712Z,75.87
2018-01-18T01:29:12.421Z,76.07
2018-01-18T01:30:18.175Z,76.13
2018-01-18T01:31:23.949Z,76.17
2018-01-18T01:32:29.668Z,76.25
2018-01-18T01:33:35.398Z,76.39
2018-01-18T01:34:41.151Z,76.37
2018-01-18T01:35:46.895Z,76.44
2018-01-18T01:36:52.648Z,76.44
2018-01-18T01:37:58.491Z,76.41
2018-01-18T01:39:03.820Z,76.40
2018-01-18T01:40:09.542Z,76.51
2018-01-18T01:41:15.285Z,76.63
2018-01-18T01:42:21.064Z,76.75
2018-01-18T01:43:26.810Z,76.86
2018-01-18T01:44:32.531Z,76.80
2018-01-18T01:45:38.255Z,76.82
2018-01-18T01:46:43.971Z,76.82
2018-01-18T01:47:49.725Z,76.95
2018-01-18T01:48:55.450Z,77.05
2018-01-18T01:50:01.191Z,77.03
2018-01-18T01:51:06.921Z,76.98
2018-01-18T01:52:13.406Z,76.91
2018-01-18T01:53:19.144Z,76.87
2018-01-18T01:54:24.849Z,76.97
2018-01-18T01:55:31.333Z,77.04
2018-01-18T01:56:37.066Z,77.15
2018-01-18T01:57:43.549Z,77.41
2018-01-18T01:58:49.303Z,77.59
2018-01-18T01:59:55.030Z,77.66
2018-01-18T02:01:00.748Z,77.68
2018-01-18T02:02:06.478Z,77.78
2018-01-18T02:03:12.960Z,77.87
2018-01-18T02:04:18.705Z,77.92
2018-01-18T02:05:24.422Z,78.05
2018-01-18T02:06:30.902Z,78.02
2018-01-18T02:07:36.652Z,78.12
2018-01-18T02:08:42.373Z,78.27
2018-01-18T02:09:48.159Z,78.32
2018-01-18T02:10:53.891Z,78.31
2018-01-18T02:11:59.627Z,78.40
2018-01-18T02:13:05.022Z,78.50
2018-01-18T02:14:11.528Z,78.60
2018-01-18T02:15:17.267Z,78.62
2018-01-18T02:16:23.004Z,78.56
2018-01-18T02:17:28.751Z,78.61
2018-01-18T02:18:34.485Z,78.73
2018-01-18T02:19:40.205Z,78.81
2018-01-18T02:20:45.979Z,78.72
2018-01-18T02:21:51.714Z,78.66
2018-01-18T02:22:57.438Z,78.57
2018-01-18T02:24:03.139Z,78.38
2018-01-18T02:25:09.623Z,78.17
2018-01-18T02:26:15.455Z,77.98
2018-01-18T02:27:21.006Z,77.82
2018-01-18T02:28:26.730Z,77.56
2018-01-18T02:29:33.199Z,77.31
2018-01-18T02:30:38.922Z,77.02
2018-01-18T02:31:45.477Z,76.88
2018-01-18T02:32:51.975Z,76.67
2018-01-18T02:33:57.679Z,76.47
2018-01-18T02:35:04.176Z,76.23
2018-01-18T02:36:09.944Z,75.98
2018-01-18T02:37:15.720Z,75.72
2018-01-18T02:38:22.223Z,75.41
2018-01-18T02:39:27.940Z,75.29
2018-01-18T02:40:33.661Z,75.20
2018-01-18T02:41:40.137Z,75.05
2018-01-18T02:42:45.915Z,74.93
2018-01-18T02:43:51.632Z,74.75
2018-01-18T02:44:57.349Z,74.58
2018-01-18T02:46:03.850Z,74.44
2018-01-18T02:47:09.568Z,74.35
2018-01-18T02:48:15.323Z,74.22
2018-01-18T02:49:21.036Z,74.12
2018-01-18T02:50:26.747Z,74.00
2018-01-18T02:51:32.491Z,73.85
2018-01-18T02:52:38.208Z,73.72
2018-01-18T02:53:43.980Z,73.66
2018-01-18T02:54:50.557Z,73.54
2018-01-18T02:55:56.703Z,73.49
2018-01-18T02:57:03.198Z,73.38
2018-01-18T02:58:08.908Z,73.23
2018-01-18T02:59:15.414Z,73.08
2018-01-18T03:00:21.142Z,73.06
2018-01-18T03:01:26.855Z,72.91
2018-01-18T03:02:32.568Z,72.84
2018-01-18T03:03:39.067Z,72.80
2018-01-18T03:04:44.846Z,72.69
2018-01-18T03:05:50.570Z,72.68
2018-01-18T03:06:56.307Z,72.63
2018-01-18T03:08:02.037Z,72.56
2018-01-18T03:09:07.796Z,72.47
2018-01-18T03:10:13.532Z,72.37
2018-01-18T03:11:19.260Z,72.34
2018-01-18T03:12:24.988Z,72.23
2018-01-18T03:13:30.709Z,72.21
2018-01-18T03:14:37.209Z,72.18
2018-01-18T03:15:42.978Z,72.21
2018-01-18T03:16:48.716Z,72.21
2018-01-18T03:17:55.932Z,72.26
2018-01-18T03:19:01.644Z,72.34
2018-01-18T03:20:08.147Z,72.39
2018-01-18T03:21:13.937Z,72.38
2018-01-18T03:22:19.660Z,72.42
2018-01-18T03:23:25.387Z,72.53
2018-01-18T03:24:31.111Z,72.57
2018-01-18T03:25:36.856Z,72.56
2018-01-18T03:26:42.606Z,72.56
2018-01-18T03:27:48.322Z,72.73
2018-01-18T03:28:54.060Z,72.91
2018-01-18T03:30:00.556Z,73.09
2018-01-18T03:31:06.288Z,73.28
2018-01-18T03:32:12.034Z,73.35
2018-01-18T03:33:17.752Z,73.33
2018-01-18T03:34:23.481Z,73.37
2018-01-18T03:35:29.947Z,73.41
2018-01-18T03:36:35.656Z,73.45
2018-01-18T03:37:41.399Z,73.51
2018-01-18T03:38:46.779Z,73.53
2018-01-18T03:39:52.566Z,73.41
2018-01-18T03:40:58.307Z,73.33
2018-01-18T03:42:04.015Z,73.25
2018-01-18T03:43:09.755Z,73.22
2018-01-18T03:44:15.463Z,73.13
2018-01-18T03:45:21.195Z,73.07
2018-01-18T03:46:27.677Z,73.08
2018-01-18T03:47:33.421Z,72.98
2018-01-18T03:48:39.178Z,72.83
2018-01-18T03:49:44.896Z,72.71
2018-01-18T03:50:50.623Z,72.63
2018-01-18T03:51:57.118Z,72.52
2018-01-18T03:53:02.827Z,72.45
2018-01-18T03:54:08.574Z,72.38
2018-01-18T03:55:14.307Z,72.34
2018-01-18T03:56:20.046Z,72.33
2018-01-18T03:57:25.759Z,72.33
2018-01-18T03:58:32.266Z,72.26
2018-01-18T03:59:38.003Z,72.23
2018-01-18T04:00:43.749Z,72.20
2018-01-18T04:01:49.458Z,72.25
2018-01-18T04:02:55.958Z,72.31
2018-01-18T04:04:01.672Z,72.30
2018-01-18T04:05:07.426Z,72.41
2018-01-18T04:06:13.146Z,72.52
2018-01-18T04:07:19.623Z,72.57
2018-01-18T04:08:25.359Z,72.57
2018-01-18T04:09:31.081Z,72.70
2018-01-18T04:10:37.650Z,72.81
2018-01-18T04:11:43.380Z,72.87
2018-01-18T04:12:49.894Z,73.02
2018-01-18T04:13:55.599Z,73.11
2018-01-18T04:15:01.326Z,73.26
2018-01-18T04:16:07.889Z,73.42
2018-01-18T04:17:13.608Z,73.46
2018-01-18T04:18:20.091Z,73.63
2018-01-18T04:19:25.813Z,73.73
2018-01-18T04:20:32.310Z,73.74
2018-01-18T04:21:38.044Z,73.86
2018-01-18T04:22:43.751Z,73.93
2018-01-18T04:23:50.224Z,73.92
2018-01-18T04:24:56.905Z,73.98
2018-01-18T04:26:02.607Z,74.01
2018-01-18T04:27:08.365Z,74.08
2018-01-18T04:28:14.879Z,74.10
2018-01-18T04:29:20.611Z,74.13
2018-01-18T04:30:26.320Z,74.16
2018-01-18T04:31:32.046Z,74.11
2018-01-18T04:32:38.619Z,74.04
2018-01-18T04:33:44.330Z,73.92
2018-01-18T04:34:50.035Z,73.89
2018-01-18T04:35:55.770Z,73.87
2018-01-18T04:37:01.548Z,73.81
2018-01-18T04:38:07.318Z,73.78
2018-01-18T04:39:13.808Z,73.74
2018-01-18T04:40:19.528Z,73.61
2018-01-18T04:41:25.251Z,73.56
2018-01-18T04:42:31.747Z,73.50
2018-01-18T04:43:37.509Z,73.52
2018-01-18T04:44:43.221Z,73.42
2018-01-18T04:45:48.971Z,73.35
2018-01-18T04:46:54.704Z,73.24
2018-01-18T04:48:00.491Z,73.15
2018-01-18T04:49:06.405Z,73.11
2018-01-18T04:50:12.143Z,73.09
2018-01-18T04:51:18.053Z,73.07
2018-01-18T04:52:24.659Z,73.05
2018-01-18T04:53:30.368Z,72.98
2018-01-18T04:54:36.133Z,72.89
2018-01-18T04:55:41.862Z,72.88
2018-01-18T04:56:47.588Z,72.86
2018-01-18T04:57:53.323Z,72.76
2018-01-18T04:58:59.060Z,72.70
2018-01-18T05:00:04.304Z,72.58
2018-01-18T05:01:10.054Z,72.52
2018-01-18T05:02:15.440Z,72.53
2018-01-18T05:03:21.173Z,72.47
2018-01-18T05:04:26.907Z,72.46
2018-01-18T05:05:32.666Z,72.41
2018-01-18T05:06:39.168Z,72.32
2018-01-18T05:07:44.904Z,72.28
2018-01-18T05:08:50.616Z,72.28
2018-01-18T05:09:57.101Z,72.28
2018-01-18T05:11:02.914Z,72.24
2018-01-18T05:12:09.392Z,72.29
2018-01-18T05:13:15.128Z,72.21
2018-01-18T05:14:21.633Z,72.19
2018-01-18T05:15:27.347Z,72.30
2018-01-18T05:16:33.117Z,72.26
2018-01-18T05:17:38.854Z,72.19
2018-01-18T05:18:44.590Z,72.08
2018-01-18T05:19:50.308Z,71.98
2018-01-18T05:20:56.038Z,72.00
2018-01-18T05:22:01.805Z,71.90
2018-01-18T05:23:07.536Z,71.80
2018-01-18T05:24:13.021Z,71.64
2018-01-18T05:25:18.751Z,71.74
2018-01-18T05:26:24.459Z,71.70
2018-01-18T05:27:30.233Z,71.57
2018-01-18T05:28:36.550Z,71.36
2018-01-18T05:29:42.255Z,71.23
2018-01-18T05:30:48.752Z,71.16
2018-01-18T05:31:54.478Z,71.05
2018-01-18T05:33:01.222Z,71.07
2018-01-18T05:34:07.752Z,71.11
2018-01-18T05:35:13.487Z,71.09
2018-01-18T05:36:19.200Z,71.06
2018-01-18T05:37:24.915Z,70.93
2018-01-18T05:38:30.666Z,70.92
2018-01-18T05:39:36.400Z,70.87
2018-01-18T05:40:42.200Z,70.85
2018-01-18T05:41:47.954Z,70.83
2018-01-18T05:42:53.449Z,70.86
2018-01-18T05:43:59.225Z,70.78
2018-01-18T05:45:04.484Z,70.83
2018-01-18T05:46:10.988Z,70.71
2018-01-18T05:47:16.726Z,70.65
2018-01-18T05:48:22.432Z,70.69
2018-01-18T05:49:28.198Z,70.73
2018-01-18T05:50:33.910Z,70.64
2018-01-18T05:51:40.417Z,70.54
2018-01-18T05:52:46.205Z,70.48
2018-01-18T05:53:51.866Z,70.44
2018-01-18T05:55:00.718Z,70.31
2018-01-18T05:56:08.795Z,70.33
2018-01-18T05:57:14.530Z,70.29
2018-01-18T05:58:20.242Z,70.14
2018-01-18T05:59:25.964Z,70.18
2018-01-18T06:00:32.469Z,70.15
2018-01-18T06:01:38.184Z,70.12
2018-01-18T06:02:43.910Z,70.18
2018-01-18T06:03:50.386Z,70.10
2018-01-18T06:04:56.100Z,70.00
2018-01-18T06:06:01.894Z,70.00
2018-01-18T06:07:07.609Z,70.01
2018-01-18T06:08:13.320Z,70.01
2018-01-18T06:09:19.053Z,69.94
2018-01-18T06:10:24.764Z,69.78
2018-01-18T06:11:30.534Z,69.80
2018-01-18T06:12:36.240Z,69.74
2018-01-18T06:13:42.124Z,69.76
2018-01-18T06:14:48.044Z,69.71
2018-01-18T06:15:53.767Z,69.60
2018-01-18T06:16:59.801Z,69.53
2018-01-18T06:18:05.540Z,69.50
2018-01-18T06:19:11.275Z,69.61
2018-01-18T06:20:17.004Z,69.85
2018-01-18T06:21:23.499Z,70.08
2018-01-18T06:22:29.232Z,70.33
2018-01-18T06:23:34.968Z,70.52
2018-01-18T06:24:40.680Z,70.74
2018-01-18T06:25:47.204Z,71.28
2018-01-18T06:26:53.345Z,71.39
2018-01-18T06:27:59.314Z,71.44
2018-01-18T06:29:05.024Z,71.68
2018-01-18T06:30:10.770Z,71.79
2018-01-18T06:31:16.498Z,71.95
2018-01-18T06:32:22.228Z,72.04
2018-01-18T06:33:27.989Z,72.15
2018-01-18T06:34:33.719Z,72.25
2018-01-18T06:35:39.450Z,72.48
2018-01-18T06:36:45.180Z,72.50
2018-01-18T06:37:51.143Z,72.49
2018-01-18T06:38:56.898Z,72.63
2018-01-18T06:40:02.623Z,72.87
2018-01-18T06:41:08.343Z,72.98
2018-01-18T06:42:14.838Z,73.17
2018-01-18T06:43:20.685Z,73.31
2018-01-18T06:44:26.436Z,73.72
2018-01-18T06:45:32.157Z,73.90
2018-01-18T06:46:37.878Z,74.05
2018-01-18T06:47:43.606Z,74.23
2018-01-18T06:48:50.101Z,74.38
2018-01-18T06:49:57.364Z,74.67
2018-01-18T06:51:02.739Z,74.75
2018-01-18T06:52:08.215Z,74.73
2018-01-18T06:53:13.927Z,74.80
2018-01-18T06:54:19.640Z,75.01
2018-01-18T06:55:25.392Z,74.98
2018-01-18T06:56:31.140Z,75.00
2018-01-18T06:57:36.862Z,75.17
2018-01-18T06:58:42.659Z,75.17
2018-01-18T06:59:48.441Z,75.40
2018-01-18T07:00:54.202Z,75.71
2018-01-18T07:01:59.922Z,75.78
2018-01-18T07:03:05.633Z,75.71
2018-01-18T07:04:11.366Z,75.80
2018-01-18T07:05:17.087Z,75.96
2018-01-18T07:06:23.614Z,75.88
2018-01-18T07:07:29.339Z,75.81
2018-01-18T07:08:35.049Z,75.96
2018-01-18T07:09:40.780Z,76.14
2018-01-18T07:10:47.277Z,76.12
2018-01-18T07:11:53.018Z,76.33
2018-01-18T07:12:58.750Z,76.26
2018-01-18T07:14:04.722Z,76.33
2018-01-18T07:15:10.461Z,76.43
2018-01-18T07:16:16.201Z,76.42
2018-01-18T07:17:21.992Z,76.51
2018-01-18T07:18:28.471Z,76.68
2018-01-18T07:19:34.175Z,76.76
2018-01-18T07:20:40.706Z,76.78
2018-01-18T07:21:46.435Z,76.71
2018-01-18T07:22:52.266Z,76.87
2018-01-18T07:23:58.064Z,76.90
2018-01-18T07:25:04.228Z,76.84
2018-01-18T07:26:10.709Z,76.67
2018-01-18T07:27:16.447Z,76.77
2018-01-18T07:28:22.961Z,76.91
2018-01-18T07:29:28.694Z,76.79
2018-01-18T07:30:34.423Z,76.76
2018-01-18T07:31:40.148Z,76.60
2018-01-18T07:32:45.903Z,76.97
2018-01-18T07:33:51.669Z,77.16
2018-01-18T07:34:57.387Z,77.18
2018-01-18T07:36:03.113Z,77.11
2018-01-18T07:37:08.853Z,77.69
2018-01-18T07:38:14.583Z,78.09
2018-01-18T07:39:21.096Z,78.69
2018-01-18T07:40:26.880Z,79.04
2018-01-18T07:41:32.592Z,79.49
2018-01-18T07:42:40.323Z,79.84
2018-01-18T07:43:46.074Z,79.98
2018-01-18T07:44:51.813Z,80.29
2018-01-18T07:45:57.543Z,80.57
2018-01-18T07:47:03.261Z,80.60
2018-01-18T07:48:09.771Z,80.65
2018-01-18T07:49:15.494Z,81.06
2018-01-18T07:50:21.228Z,81.67
2018-01-18T07:51:27.371Z,82.11
2018-01-18T07:52:33.084Z,82.51
2018-01-18T07:53:39.390Z,83.11
2018-01-18T07:54:45.118Z,83.45
2018-01-18T07:55:50.881Z,83.57
2018-01-18T07:57:02.132Z,83.74
2018-01-18T07:58:07.882Z,84.08
2018-01-18T07:59:13.922Z,84.40
2018-01-18T08:00:19.527Z,84.42
2018-01-18T08:01:26.101Z,84.49
2018-01-18T08:02:31.614Z,84.57
2018-01-18T08:03:42.644Z,84.61
2018-01-18T08:04:48.780Z,84.85
2018-01-18T08:05:54.520Z,85.15
2018-01-18T08:07:00.298Z,85.32
2018-01-18T08:08:06.023Z,85.36
2018-01-18T08:09:12.152Z,85.41
2018-01-18T08:10:17.886Z,85.65
2018-01-18T08:11:24.359Z,85.73
2018-01-18T08:12:30.292Z,85.71
2018-01-18T08:13:36.768Z,85.67
2018-01-18T08:14:42.484Z,85.84
2018-01-18T08:15:48.981Z,85.92
2018-01-18T08:16:54.717Z,86.03
2018-01-18T08:18:00.467Z,85.94
2018-01-18T08:19:06.202Z,86.06
2018-01-18T08:20:11.938Z,86.00
2018-01-18T08:21:17.662Z,86.23
2018-01-18T08:22:24.186Z,86.00
2018-01-18T08:23:29.943Z,86.27
2018-01-18T08:24:36.420Z,86.42
2018-01-18T08:25:42.157Z,86.86
2018-01-18T08:26:48.629Z,87.06
2018-01-18T08:27:54.335Z,87.14
2018-01-18T08:29:00.095Z,87.31
2018-01-18T08:30:04.965Z,87.56
2018-01-18T08:31:10.668Z,87.62
2018-01-18T08:32:16.398Z,87.74
2018-01-18T08:33:22.126Z,87.97
2018-01-18T08:34:28.656Z,88.08
2018-01-18T08:35:34.373Z,88.17
2018-01-18T08:36:40.115Z,88.26
2018-01-18T08:37:45.831Z,88.43
2018-01-18T08:38:51.616Z,88.39
2018-01-18T08:39:57.382Z,88.56
2018-01-18T08:41:03.115Z,88.67
2018-01-18T08:42:08.835Z,88.65
2018-01-18T08:43:14.568Z,88.68
2018-01-18T08:44:20.596Z,88.73
2018-01-18T08:45:27.131Z,88.62
2018-01-18T08:46:33.619Z,88.66
2018-01-18T08:47:39.344Z,88.68
2018-01-18T08:48:45.052Z,88.53
2018-01-18T08:49:51.562Z,88.32
2018-01-18T08:50:57.355Z,88.20
2018-01-18T08:52:03.060Z,88.16
2018-01-18T08:53:09.560Z,88.08
2018-01-18T08:54:16.050Z,88.12
2018-01-18T08:55:21.774Z,88.02
2018-01-18T08:56:28.284Z,87.95
2018-01-18T08:57:34.014Z,87.96
2018-01-18T08:58:39.762Z,87.60
2018-01-18T08:59:45.687Z,87.52
2018-01-18T09:00:51.066Z,87.37
2018-01-18T09:01:56.630Z,87.27
2018-01-18T09:03:02.358Z,86.99
2018-01-18T09:04:08.849Z,86.82
2018-01-18T09:05:14.561Z,86.60
2018-01-18T09:06:21.040Z,86.48
2018-01-18T09:07:26.790Z,86.36
2018-01-18T09:08:32.500Z,86.23
2018-01-18T09:09:39.007Z,86.01
2018-01-18T09:10:44.730Z,85.65
2018-01-18T09:11:50.454Z,85.37
2018-01-18T09:12:56.001Z,85.12
2018-01-18T09:14:01.717Z,84.82
2018-01-18T09:15:08.197Z,84.06
2018-01-18T09:16:13.925Z,84.09
2018-01-18T09:17:20.482Z,84.09
2018-01-18T09:18:26.998Z,83.91
2018-01-18T09:19:32.774Z,83.70
2018-01-18T09:20:39.252Z,83.41
2018-01-18T09:21:45.391Z,83.17
2018-01-18T09:22:51.959Z,82.98
2018-01-18T09:23:57.713Z,82.62
2018-01-18T09:25:03.419Z,82.27
2018-01-18T09:26:09.945Z,82.08
2018-01-18T09:27:15.653Z,81.99
2018-01-18T09:28:21.378Z,81.89
2018-01-18T09:29:27.907Z,81.30
2018-01-18T09:30:33.627Z,80.91
2018-01-18T09:31:39.367Z,80.84
2018-01-18T09:32:45.077Z,80.18
2018-01-18T09:33:50.808Z,79.71
2018-01-18T09:34:56.560Z,79.27
2018-01-18T09:36:02.275Z,79.16
2018-01-18T09:37:08.791Z,78.94
2018-01-18T09:38:14.577Z,78.59
2018-01-18T09:39:21.053Z,78.58
2018-01-18T09:40:26.803Z,78.51
2018-01-18T09:41:32.537Z,78.59
2018-01-18T09:42:38.266Z,78.61
2018-01-18T09:43:44.747Z,78.38
2018-01-18T09:44:50.483Z,78.32
2018-01-18T09:45:56.341Z,78.13
2018-01-18T09:47:02.064Z,78.18
2018-01-18T09:48:07.789Z,78.28
2018-01-18T09:49:14.304Z,78.40
2018-01-18T09:50:20.021Z,78.16
2018-01-18T09:51:25.749Z,78.02
2018-01-18T09:52:31.451Z,78.15
2018-01-18T09:53:37.928Z,77.94
2018-01-18T09:54:43.636Z,77.71
2018-01-18T09:55:50.874Z,77.30
2018-01-18T09:56:57.582Z,77.00
2018-01-18T09:58:03.349Z,76.93
2018-01-18T09:59:09.836Z,76.51
2018-01-18T10:00:15.560Z,76.59
2018-01-18T10:01:21.300Z,76.27
2018-01-18T10:02:27.054Z,75.95
2018-01-18T10:03:32.971Z,75.88
2018-01-18T10:04:39.476Z,75.61
2018-01-18T10:05:45.199Z,74.79
2018-01-18T10:06:50.933Z,74.56
2018-01-18T10:07:56.683Z,74.50
2018-01-18T10:09:02.435Z,74.46
2018-01-18T10:10:08.225Z,74.41
2018-01-18T10:11:14.799Z,74.37
2018-01-18T10:12:20.548Z,74.26
2018-01-18T10:13:26.315Z,73.80
2018-01-18T10:14:32.044Z,73.87
2018-01-18T10:15:37.744Z,74.02
2018-01-18T10:16:43.487Z,73.87
2018-01-18T10:17:49.960Z,73.78
2018-01-18T10:18:56.483Z,73.70
2018-01-18T10:20:02.235Z,73.55
2018-01-18T10:21:07.950Z,73.22
2018-01-18T10:22:13.674Z,73.13
2018-01-18T10:23:19.455Z,73.15
2018-01-18T10:24:25.221Z,73.07
2018-01-18T10:25:31.703Z,72.94
2018-01-18T10:26:37.415Z,72.75
2018-01-18T10:27:43.895Z,72.72
2018-01-18T10:28:49.626Z,72.62
2018-01-18T10:29:56.335Z,72.45
2018-01-18T10:31:02.160Z,72.46
2018-01-18T10:32:07.865Z,72.44
2018-01-18T10:33:14.168Z,72.55
2018-01-18T10:34:19.927Z,72.55
2018-01-18T10:35:25.691Z,72.60
2018-01-18T10:36:31.420Z,72.60
2018-01-18T10:37:37.144Z,72.74
2018-01-18T10:38:42.687Z,72.56
2018-01-18T10:39:48.195Z,72.54
2018-01-18T10:40:53.972Z,72.54
2018-01-18T10:41:59.506Z,72.54
2018-01-18T10:43:05.055Z,72.63
2018-01-18T10:44:11.540Z,72.76
2018-01-18T10:45:18.012Z,72.79
2018-01-18T10:46:23.758Z,72.79
2018-01-18T10:47:29.470Z,72.90
2018-01-18T10:48:35.960Z,73.05
2018-01-18T10:49:41.599Z,72.99
2018-01-18T10:50:47.340Z,73.05
2018-01-18T10:51:53.128Z,73.07
2018-01-18T10:52:58.860Z,73.15
2018-01-18T10:54:04.595Z,73.26
2018-01-18T10:55:10.328Z,73.15
2018-01-18T10:56:16.050Z,72.95
2018-01-18T10:57:22.217Z,73.00
2018-01-18T10:58:27.946Z,72.95
2018-01-18T10:59:33.687Z,72.82
2018-01-18T11:00:39.393Z,72.90
2018-01-18T11:01:45.890Z,72.96
2018-01-18T11:02:51.646Z,73.03
2018-01-18T11:03:57.353Z,72.83
2018-01-18T11:05:03.094Z,72.74
2018-01-18T11:06:08.837Z,72.57
2018-01-18T11:07:15.318Z,72.43
2018-01-18T11:08:21.076Z,72.22
2018-01-18T11:09:26.841Z,72.20
2018-01-18T11:10:32.567Z,72.12
2018-01-18T11:11:39.880Z,72.08
2018-01-18T11:12:45.589Z,72.05
2018-01-18T11:13:51.331Z,71.94
2018-01-18T11:14:57.091Z,72.06
2018-01-18T11:16:03.568Z,72.26
2018-01-18T11:17:09.271Z,72.24
2018-01-18T11:18:14.976Z,72.25
2018-01-18T11:19:20.716Z,72.16
2018-01-18T11:20:27.211Z,72.07
2018-01-18T11:21:32.958Z,72.14
2018-01-18T11:22:38.722Z,72.24
2018-01-18T11:23:45.225Z,72.18
2018-01-18T11:24:50.977Z,72.09
2018-01-18T11:25:56.682Z,72.10
2018-01-18T11:27:02.455Z,72.05
2018-01-18T11:28:08.002Z,71.82
2018-01-18T11:29:13.727Z,71.67
2018-01-18T11:30:19.474Z,71.76
2018-01-18T11:31:25.257Z,71.81
2018-01-18T11:32:31.735Z,71.85
2018-01-18T11:33:37.467Z,71.85
2018-01-18T11:34:43.978Z,71.97
2018-01-18T11:35:49.745Z,72.12
2018-01-18T11:36:56.236Z,72.26
2018-01-18T11:38:02.191Z,72.30
2018-01-18T11:39:07.922Z,72.21
2018-01-18T11:40:13.651Z,72.22
2018-01-18T11:41:20.226Z,72.32
2018-01-18T11:42:26.700Z,72.30
2018-01-18T11:43:32.399Z,72.46
2018-01-18T11:44:38.956Z,72.52
2018-01-18T11:45:45.290Z,72.64
2018-01-18T11:46:51.054Z,72.98
2018-01-18T11:47:57.550Z,73.20
2018-01-18T11:49:03.264Z,73.34
2018-01-18T11:50:09.215Z,73.45
2018-01-18T11:51:14.950Z,73.47
2018-01-18T11:52:20.781Z,73.47
2018-01-18T11:53:26.539Z,73.50
2018-01-18T11:54:33.018Z,73.49
2018-01-18T11:55:38.866Z,73.46
2018-01-18T11:56:44.781Z,73.52
2018-01-18T11:57:50.542Z,73.54
2018-01-18T11:58:57.050Z,73.29
2018-01-18T12:00:02.761Z,73.24
2018-01-18T12:01:08.493Z,73.31
2018-01-18T12:02:14.979Z,73.28
2018-01-18T12:03:20.723Z,73.15
2018-01-18T12:04:26.812Z,73.08
2018-01-18T12:05:32.591Z,73.26
2018-01-18T12:06:38.505Z,73.47
2018-01-18T12:07:44.260Z,73.53
2018-01-18T12:08:49.996Z,73.46
2018-01-18T12:09:55.714Z,73.43
2018-01-18T12:11:02.196Z,73.35
2018-01-18T12:12:07.903Z,73.32
2018-01-18T12:13:13.615Z,73.41
2018-01-18T12:14:19.359Z,73.57
2018-01-18T12:15:25.081Z,73.77
2018-01-18T12:16:30.882Z,73.71
2018-01-18T12:17:37.641Z,73.64
2018-01-18T12:18:44.239Z,73.55
2018-01-18T12:19:50.214Z,73.52
2018-01-18T12:20:55.952Z,73.59
2018-01-18T12:22:01.738Z,73.58
2018-01-18T12:23:07.890Z,73.29
2018-01-18T12:24:14.658Z,72.80
2018-01-18T12:25:20.603Z,72.54
2018-01-18T12:26:27.471Z,72.41
2018-01-18T12:27:33.417Z,72.07
2018-01-18T12:28:39.296Z,71.93
2018-01-18T12:29:45.998Z,71.81
2018-01-18T12:30:51.938Z,71.67
2018-01-18T12:31:58.433Z,71.72
2018-01-18T12:33:05.158Z,71.51
2018-01-18T12:34:11.045Z,71.27
2018-01-18T12:35:16.961Z,71.11
2018-01-18T12:36:22.895Z,70.93
2018-01-18T12:37:28.875Z,70.78
2018-01-18T12:38:34.753Z,70.68
2018-01-18T12:39:40.734Z,70.30
2018-01-18T12:40:47.481Z,70.02
2018-01-18T12:41:53.681Z,69.52
2018-01-18T12:43:02.191Z,69.35
2018-01-18T12:44:08.148Z,68.90
2018-01-18T12:45:14.142Z,68.56
2018-01-18T12:46:20.459Z,68.64
2018-01-18T12:47:26.490Z,68.14
2018-01-18T12:48:33.160Z,67.77
2018-01-18T12:49:39.998Z,67.79
2018-01-18T12:50:47.620Z,67.52
2018-01-18T12:51:53.826Z,66.92
2018-01-18T12:52:59.716Z,65.82
2018-01-18T12:54:05.558Z,65.13
2018-01-18T12:55:11.611Z,65.37
2018-01-18T12:56:17.557Z,65.21
2018-01-18T12:57:23.603Z,64.92
2018-01-18T12:58:29.753Z,64.02
2018-01-18T12:59:35.715Z,63.47
2018-01-18T13:00:41.871Z,62.32
2018-01-18T13:01:47.900Z,61.43
2018-01-18T13:02:54.000Z,61.66
2018-01-18T13:04:00.075Z,62.44
2018-01-18T13:05:06.095Z,62.22
2018-01-18T13:06:12.144Z,62.15
2018-01-18T13:07:18.264Z,61.69
2018-01-18T13:08:24.753Z,61.23
2018-01-18T13:09:32.550Z,60.50
2018-01-18T13:10:38.622Z,60.37
2018-01-18T13:11:44.750Z,60.92
2018-01-18T13:12:52.739Z,59.72
2018-01-18T13:13:59.558Z,59.47
2018-01-18T13:15:05.858Z,58.93
2018-01-18T13:16:12.037Z,57.81
2018-01-18T13:17:18.921Z,57.25
2018-01-18T13:18:24.943Z,57.22
2018-01-18T13:19:31.816Z,56.09
2018-01-18T13:20:37.991Z,53.73
2018-01-18T13:21:43.912Z,53.00
2018-01-18T13:22:50.660Z,52.11
2018-01-18T13:23:57.947Z,51.11
2018-01-18T13:25:04.746Z,50.19
2018-01-18T13:26:11.664Z,50.13
2018-01-18T13:27:18.438Z,50.25
2018-01-18T13:28:24.338Z,50.53
2018-01-18T13:29:30.383Z,50.74
2018-01-18T13:30:36.648Z,50.87
2018-01-18T13:31:42.793Z,51.48
2018-01-18T13:32:48.719Z,51.83
2018-01-18T13:33:54.874Z,52.13
2018-01-18T13:35:00.821Z,52.29
2018-01-18T13:36:07.175Z,52.15
2018-01-18T13:37:14.101Z,51.64
2018-01-18T13:38:20.972Z,51.22
2018-01-18T13:39:27.762Z,50.28
2018-01-18T13:40:34.744Z,50.60
2018-01-18T13:41:40.630Z,49.79
2018-01-18T13:42:46.779Z,49.45
2018-01-18T13:43:52.995Z,48.45
2018-01-18T13:44:58.952Z,48.22
2018-01-18T13:46:04.959Z,46.75
2018-01-18T13:47:11.739Z,46.51
2018-01-18T13:48:18.585Z,46.30
2018-01-18T13:49:25.486Z,46.29
2018-01-18T13:50:31.626Z,46.49
2018-01-18T13:51:37.627Z,46.97
2018-01-18T13:52:44.434Z,47.16
2018-01-18T13:53:50.487Z,47.33
2018-01-18T13:54:56.451Z,47.23
2018-01-18T13:56:02.599Z,47.47
2018-01-18T13:57:08.657Z,47.48
2018-01-18T13:58:15.417Z,47.62
2018-01-18T13:59:21.557Z,47.67
2018-01-18T14:00:27.665Z,47.71
2018-01-18T14:01:34.433Z,48.11
2018-01-18T14:02:40.425Z,47.92
2018-01-18T14:03:47.853Z,47.80
2018-01-18T14:04:54.053Z,47.27
2018-01-18T14:06:00.816Z,47.19
2018-01-18T14:07:06.967Z,47.26
2018-01-18T14:08:13.225Z,47.48
2018-01-18T14:09:19.677Z,47.64